Squirrel, Idaho
Current Conditions -  °F | °C
As of 10:56 AM on Thursday 23 Oct 2014 (Local Time) from KDIJ Reporting Station
Broken Clouds Broken Clouds  
Wind Chill: 54°   Ceiling: 10000
Heat Index: 54°   Visibility: 10mi
Dew Point: 26°   Wind: 14mph
Humidity: 34%   Direction: 220°SW
Pressure: 30.17"   Gusts: NA
Location:  44.03°N, 111.3°W
Report Text: KDIJ 231656Z AUTO 22012KT 10SM BKN100 12/M03 A3017 RMK AO2 T01221033 SLP182
Loading
Personal Weather Stations






























Interactive Weather Map
Tropical Storm Tracking
New forecast layout! Learn more

10-Day Weather Forecast

Advertisements
Track Severe Weather on mobile